createdAt,value
2019-04-01T03:56:01.110Z,0.1
2019-04-01T03:58:01.098Z,0.2
2019-04-01T03:59:01.107Z,0.3
2019-04-01T04:00:01.323Z,0.3
2019-04-01T04:01:01.570Z,0.4
2019-04-01T04:02:01.109Z,0.5
2019-04-01T04:03:01.108Z,0.6
2019-04-01T04:04:01.114Z,0.7
2019-04-01T04:05:01.301Z,0.9
2019-04-01T04:06:01.111Z,1.0
2019-04-01T04:07:01.120Z,1.2
2019-04-01T04:08:01.110Z,1.4
2019-04-01T04:09:02.091Z,1.7
2019-04-01T04:10:01.468Z,1.9
2019-04-01T04:11:01.110Z,2.2
2019-04-01T04:12:01.120Z,2.5
2019-04-01T04:13:01.141Z,2.9
2019-04-01T04:14:01.137Z,3.5
2019-04-01T04:15:01.262Z,4.1
2019-04-01T04:16:01.111Z,4.8
2019-04-01T04:17:01.108Z,5.7
2019-04-01T04:18:01.157Z,6.7
2019-04-01T04:19:01.131Z,8.0
2019-04-01T04:20:01.268Z,9.5
2019-04-01T04:22:01.163Z,11.7
2019-04-01T04:23:01.109Z,14.3
2019-04-01T04:24:01.194Z,17.3
2019-04-01T04:25:02.164Z,20.9
2019-04-01T04:26:01.268Z,25.3
2019-04-01T04:27:01.126Z,30.4
2019-04-01T04:28:01.133Z,36.5
2019-04-01T04:29:06.128Z,43.6
2019-04-01T04:30:01.102Z,51.9
2019-04-01T04:31:02.158Z,61.8
2019-04-01T04:32:01.105Z,73.3
2019-04-01T04:33:01.103Z,86.8
2019-04-01T04:34:06.126Z,102.5
2019-04-01T04:35:01.117Z,120.7
2019-04-01T04:36:01.343Z,141.8
2019-04-01T04:37:01.101Z,165.7
2019-04-01T04:38:01.101Z,193.3
2019-04-01T04:39:01.125Z,224.9
2019-04-01T04:40:01.104Z,261.0
2019-04-01T04:41:01.253Z,302.0
2019-04-01T04:42:01.103Z,348.3
2019-04-01T04:43:01.167Z,400.5
2019-04-01T04:44:06.108Z,458.9
2019-04-01T04:45:01.106Z,524.3
2019-04-01T04:46:01.444Z,596.9
2019-04-01T04:47:01.107Z,677.3
2019-04-01T04:48:01.107Z,766.0
2019-04-01T04:49:06.150Z,863.4
2019-04-01T04:50:01.106Z,969.8
2019-04-01T04:51:01.450Z,1085.7
2019-04-01T04:52:04.300Z,1211.3
2019-04-01T04:53:01.178Z,1347.1
2019-04-01T04:54:06.365Z,1493.3
2019-04-01T04:55:01.100Z,1650.5
2019-04-01T04:56:01.250Z,1818.9
2019-04-01T04:57:01.100Z,1998.7
2019-04-01T04:58:01.111Z,2190.7
2019-04-01T04:59:01.131Z,2394.5
2019-04-01T05:00:01.105Z,2610.3
2019-04-01T05:01:01.319Z,2838.2
2019-04-01T05:02:01.162Z,3078.3
2019-04-01T05:03:01.102Z,3330.4
2019-04-01T05:04:06.284Z,3594.4
2019-04-01T05:05:01.118Z,3870.5
2019-04-01T05:06:01.443Z,4158.6
2019-04-01T05:07:01.116Z,4458.7
2019-04-01T05:08:01.108Z,4770.3
2019-04-01T05:09:06.124Z,5092.9
2019-04-01T05:10:01.693Z,5425.5
2019-04-01T05:11:01.391Z,5767.8
2019-04-01T05:12:01.111Z,6119.3
2019-04-01T05:13:01.110Z,6479.3
2019-04-01T05:14:01.140Z,6847.9
2019-04-01T05:15:01.109Z,7224.5
2019-04-01T05:16:01.263Z,7608.6
2019-04-01T05:17:01.114Z,7999.8
2019-04-01T05:18:01.115Z,8397.3
2019-04-01T05:19:01.117Z,8800.5
2019-04-01T05:20:01.137Z,9209.1
2019-04-01T05:21:01.300Z,9624.4
2019-04-01T05:22:01.107Z,10049.1
2019-04-01T05:23:01.110Z,10488.5
2019-04-01T05:25:01.094Z,11050.8
2019-04-01T05:26:01.246Z,11649.1
2019-04-01T05:27:01.100Z,12195.7
2019-04-01T05:28:01.099Z,12705.7
2019-04-01T05:29:06.105Z,13273.2
2019-04-01T05:30:01.568Z,13906.1
2019-04-01T05:31:01.253Z,14532.9
2019-04-01T05:32:01.101Z,15170.4
2019-04-01T05:33:01.098Z,15800.9
2019-04-01T05:34:01.135Z,16355.7
2019-04-01T05:35:01.104Z,16877.7
2019-04-01T05:36:01.285Z,17396.8
2019-04-01T05:37:01.097Z,17915.9
2019-04-01T05:38:01.104Z,18420.1
2019-04-01T05:39:06.108Z,18866.9
2019-04-01T05:40:01.098Z,19158.6
2019-04-01T05:41:01.354Z,19409.4
2019-04-01T05:42:01.099Z,19708.6
2019-04-01T05:43:01.100Z,20041.5
2019-04-01T05:44:02.329Z,20318.5
2019-04-01T05:45:01.104Z,20530.1
2019-04-01T05:46:01.252Z,20739.5
2019-04-01T05:47:01.111Z,20928.9
2019-04-01T05:48:01.102Z,21119.9
2019-04-01T05:49:01.119Z,21381.8
2019-04-01T05:50:01.103Z,21671.1
2019-04-01T05:51:01.253Z,21957.1
2019-04-01T05:52:01.104Z,22235.7
2019-04-01T05:53:01.095Z,22518.6
2019-04-01T05:54:06.123Z,22847.4
2019-04-01T05:55:01.102Z,23213.0
2019-04-01T05:56:01.253Z,23582.4
2019-04-01T05:57:01.109Z,24009.1
2019-04-01T05:58:01.108Z,24528.5
2019-04-01T05:59:06.103Z,25119.8
2019-04-01T06:00:01.122Z,25720.3
2019-04-01T06:01:01.509Z,26317.6
2019-04-01T06:02:02.243Z,26851.9
2019-04-01T06:03:01.102Z,27340.9
2019-04-01T06:04:01.110Z,27809.5
2019-04-01T06:05:01.107Z,28247.0
2019-04-01T06:06:01.246Z,28695.3
2019-04-01T06:07:01.149Z,29122.8
2019-04-01T06:08:01.110Z,29523.1
2019-04-01T06:09:01.098Z,29936.3
2019-04-01T06:10:01.112Z,30326.9
2019-04-01T06:11:01.260Z,30698.1
2019-04-01T06:12:01.200Z,31014.0
2019-04-01T06:13:01.106Z,31261.9
2019-04-01T06:14:01.113Z,31405.1
2019-04-01T06:15:01.125Z,31471.5
2019-04-01T06:16:01.516Z,31566.9
2019-04-01T06:17:06.118Z,31767.7
2019-04-01T06:18:01.115Z,32036.6
2019-04-01T06:19:05.826Z,32301.1
2019-04-01T06:20:01.108Z,32576.1
2019-04-01T06:21:01.593Z,32820.5
2019-04-01T06:22:06.181Z,33091.3
2019-04-01T06:23:01.108Z,33442.3
2019-04-01T06:24:01.175Z,33951.5
2019-04-01T06:25:01.117Z,34618.1
2019-04-01T06:26:01.333Z,35177.9
2019-04-01T06:27:06.111Z,35610.2
2019-04-01T06:28:01.107Z,35989.1
2019-04-01T06:29:01.114Z,36424.3
2019-04-01T06:30:01.214Z,36922.7
2019-04-01T06:31:01.264Z,37290.1
2019-04-01T06:32:06.111Z,37589.7
2019-04-01T06:34:01.166Z,38052.5
2019-04-01T06:35:01.101Z,38581.5
2019-04-01T06:36:01.271Z,39024.3
2019-04-01T06:37:01.149Z,39403.3
2019-04-01T06:38:01.098Z,39827.9
2019-04-01T06:39:01.685Z,40246.1
2019-04-01T06:40:01.112Z,40468.3
2019-04-01T06:41:01.259Z,40514.4
2019-04-01T06:42:01.136Z,40845.4
2019-04-01T06:43:01.097Z,41580.5
2019-04-01T06:44:01.106Z,42597.9
2019-04-01T06:45:01.111Z,43735.7
2019-04-01T06:46:01.324Z,44818.2
2019-04-01T06:47:01.160Z,45861.1
2019-04-01T06:48:01.107Z,46936.7
2019-04-01T06:49:01.109Z,48104.2
2019-04-01T06:50:01.138Z,49409.1
2019-04-01T06:51:01.258Z,50881.1
2019-04-01T06:52:01.139Z,52466.7
2019-04-01T06:53:01.102Z,54037.2
2019-04-01T06:54:01.106Z,55572.8
2019-04-01T06:55:01.109Z,57104.6
2019-04-01T06:56:01.247Z,58647.0
2019-04-01T06:57:01.125Z,60005.8
2019-04-01T06:58:01.110Z,61062.5
2019-04-01T06:59:01.105Z,61842.1
2019-04-01T07:00:01.138Z,62448.5
2019-04-01T07:01:01.253Z,63086.8
2019-04-01T07:02:06.118Z,63849.8
2019-04-01T07:03:01.108Z,64586.4
2019-04-01T07:04:02.260Z,65021.8
2019-04-01T07:05:01.103Z,65254.3
2019-04-01T07:06:01.254Z,65403.1
2019-04-01T07:07:01.135Z,65499.1
2019-04-01T07:08:01.103Z,65535.0
2019-04-01T07:15:01.175Z,65535.0
2019-04-01T07:30:01.152Z,65535.0
2019-04-01T07:45:01.177Z,65535.0
2019-04-01T08:00:06.289Z,65535.0
2019-04-01T08:15:01.182Z,65535.0
2019-04-01T08:30:06.130Z,65535.0
2019-04-01T08:45:02.211Z,65535.0
2019-04-01T09:00:01.137Z,65535.0
2019-04-01T09:15:01.186Z,65535.0
2019-04-01T09:30:01.123Z,65535.0
2019-04-01T09:45:01.244Z,65535.0
2019-04-01T10:00:01.143Z,65535.0
2019-04-01T10:15:01.154Z,65535.0
2019-04-01T10:30:01.115Z,65535.0
2019-04-01T10:46:01.315Z,65535.0
2019-04-01T11:00:01.392Z,65535.0
2019-04-01T11:15:06.181Z,65535.0
2019-04-01T11:30:01.096Z,65535.0
2019-04-01T11:45:01.358Z,65535.0
2019-04-01T12:01:01.334Z,65535.0
2019-04-01T12:15:06.178Z,65535.0
2019-04-01T12:30:01.352Z,65535.0
2019-04-01T12:45:01.127Z,65535.0
2019-04-01T13:00:01.135Z,65535.0
2019-04-01T13:15:01.240Z,65535.0
2019-04-01T13:30:01.378Z,65535.0
2019-04-01T13:45:01.895Z,65535.0
2019-04-01T14:00:01.485Z,65535.0
2019-04-01T14:15:01.485Z,65535.0
2019-04-01T14:30:01.364Z,65535.0
2019-04-01T14:45:01.105Z,65535.0
2019-04-01T15:00:06.112Z,65535.0
2019-04-01T15:15:01.316Z,65535.0
2019-04-01T15:30:02.648Z,65391.8
2019-04-01T15:31:01.097Z,64826.3
2019-04-01T15:32:01.156Z,64033.8
2019-04-01T15:33:01.100Z,63093.7
2019-04-01T15:34:01.099Z,62064.5
2019-04-01T15:35:01.262Z,60965.5
2019-04-01T15:36:03.990Z,59821.6
2019-04-01T15:37:01.133Z,58630.7
2019-04-01T15:38:01.099Z,57405.3
2019-04-01T15:39:01.097Z,56143.8
2019-04-01T15:40:01.243Z,54848.5
2019-04-01T15:41:01.094Z,53526.5
2019-04-01T15:42:01.135Z,52179.3
2019-04-01T15:43:02.173Z,50806.0
2019-04-01T15:44:01.099Z,49409.6
2019-04-01T15:45:01.246Z,48134.4
2019-04-01T15:46:03.998Z,47260.7
2019-04-01T15:47:04.300Z,46591.7
2019-04-01T15:48:01.098Z,46047.5
2019-04-01T15:49:01.129Z,45572.7
2019-04-01T15:50:01.253Z,45149.6
2019-04-01T15:51:01.096Z,44754.0
2019-04-01T15:52:01.133Z,44388.3
2019-04-01T15:53:01.102Z,44042.1
2019-04-01T15:54:01.576Z,43718.4
2019-04-01T15:55:02.393Z,43410.7
2019-04-01T15:56:01.107Z,43110.1
2019-04-01T15:57:01.129Z,42816.6
2019-04-01T15:58:01.139Z,42531.5
2019-04-01T15:59:01.106Z,42250.6
2019-04-01T16:00:03.191Z,41974.9
2019-04-01T16:01:01.239Z,41703.4
2019-04-01T16:02:01.104Z,41436.5
2019-04-01T16:03:01.141Z,41175.7
2019-04-01T16:04:01.100Z,40916.5
2019-04-01T16:05:01.262Z,40656.6
2019-04-01T16:06:01.111Z,40397.5
2019-04-01T16:07:01.105Z,40139.7
2019-04-01T16:08:01.129Z,39880.9
2019-04-01T16:09:06.130Z,39620.8
2019-04-01T16:10:01.245Z,39360.6
2019-04-01T16:11:01.101Z,39102.2
2019-04-01T16:12:01.099Z,38841.5
2019-04-01T16:13:01.101Z,38580.4
2019-04-01T16:14:01.134Z,38321.8
2019-04-01T16:15:01.250Z,38064.0
2019-04-01T16:16:01.102Z,37807.7
2019-04-01T16:17:01.107Z,37554.3
2019-04-01T16:18:02.094Z,37300.9
2019-04-01T16:19:01.122Z,37048.5
2019-04-01T16:20:02.220Z,36797.7
2019-04-01T16:21:01.108Z,36547.6
2019-04-01T16:22:01.102Z,36297.7
2019-04-01T16:23:01.100Z,36045.5
2019-04-01T16:24:01.130Z,35789.1
2019-04-01T16:25:01.257Z,35532.9
2019-04-01T16:26:01.105Z,35274.1
2019-04-01T16:28:01.091Z,35001.4
2019-04-01T16:29:01.111Z,34732.5
2019-04-01T16:30:01.250Z,34463.7
2019-04-01T16:31:01.091Z,34193.1
2019-04-01T16:32:01.089Z,33920.4
2019-04-01T16:33:01.091Z,33645.9
2019-04-01T16:34:01.117Z,33368.9
2019-04-01T16:35:01.309Z,33091.9
2019-04-01T16:36:01.094Z,32813.3
2019-04-01T16:37:01.095Z,32533.3
2019-04-01T16:38:01.094Z,32254.5
2019-04-01T16:39:01.127Z,31974.4
2019-04-01T16:40:01.249Z,31693.7
2019-04-01T16:41:01.094Z,31411.6
2019-04-01T16:42:01.095Z,31128.4
2019-04-01T16:43:01.094Z,30861.5
2019-04-01T16:44:01.121Z,30588.5
2019-04-01T16:45:01.321Z,30311.0
2019-04-01T16:46:01.085Z,30031.8
2019-04-01T16:47:01.088Z,29750.5
2019-04-01T16:48:01.095Z,29466.3
2019-04-01T16:49:01.123Z,29182.5
2019-04-01T16:50:01.300Z,28895.5
2019-04-01T16:51:01.099Z,28606.0
2019-04-01T16:52:01.097Z,28311.5
2019-04-01T16:53:01.098Z,28010.9
2019-04-01T16:54:06.115Z,27708.1
2019-04-01T16:55:01.245Z,27402.3
2019-04-01T16:56:01.088Z,27094.1
2019-04-01T16:57:01.090Z,26785.3
2019-04-01T16:58:01.132Z,26472.8
2019-04-01T16:59:01.116Z,26160.1
2019-04-01T17:00:01.321Z,25845.4
2019-04-01T17:01:02.705Z,25527.8
2019-04-01T17:02:01.104Z,25207.7
2019-04-01T17:03:01.648Z,24884.5
2019-04-01T17:04:01.127Z,24557.6
2019-04-01T17:05:01.252Z,24226.9
2019-04-01T17:06:01.099Z,23893.1
2019-04-01T17:07:01.103Z,23557.5
2019-04-01T17:08:01.108Z,23218.5
2019-04-01T17:09:01.128Z,22877.3
2019-04-01T17:10:01.335Z,22534.4
2019-04-01T17:11:01.300Z,22187.3
2019-04-01T17:12:01.108Z,21837.8
2019-04-01T17:13:01.486Z,21484.8
2019-04-01T17:14:01.847Z,21127.4
2019-04-01T17:15:03.431Z,20767.2
2019-04-01T17:16:01.604Z,20404.5
2019-04-01T17:17:01.114Z,20038.1
2019-04-01T17:18:01.113Z,19668.3
2019-04-01T17:19:01.134Z,19295.2
2019-04-01T17:20:01.289Z,18920.0
2019-04-01T17:22:01.118Z,18516.0
2019-04-01T17:23:01.410Z,18109.1
2019-04-01T17:24:01.092Z,17699.7
2019-04-01T17:25:01.098Z,17287.8
2019-04-01T17:26:01.322Z,16872.1
2019-04-01T17:27:01.086Z,16453.9
2019-04-01T17:28:01.096Z,16032.2
2019-04-01T17:29:01.120Z,15608.4
2019-04-01T17:30:01.095Z,15182.3
2019-04-01T17:31:01.597Z,14754.3
2019-04-01T17:32:01.104Z,14324.0
2019-04-01T17:33:01.089Z,13892.7
2019-04-01T17:34:01.130Z,13460.3
2019-04-01T17:35:01.105Z,13027.1
2019-04-01T17:36:01.273Z,12593.9
2019-04-01T17:37:01.320Z,12187.5
2019-04-01T17:38:01.099Z,11782.3
2019-04-01T17:39:01.126Z,11377.3
2019-04-01T17:40:01.092Z,10973.1
2019-04-01T17:41:01.249Z,10571.5
2019-04-01T17:42:01.101Z,10173.2
2019-04-01T17:43:01.104Z,9778.0
2019-04-01T17:44:06.107Z,9385.3
2019-04-01T17:45:01.105Z,8996.1
2019-04-01T17:46:01.253Z,8610.8
2019-04-01T17:47:01.096Z,8229.6
2019-04-01T17:48:01.110Z,7852.5
2019-04-01T17:49:06.116Z,7480.1
2019-04-01T17:50:01.097Z,7112.6
2019-04-01T17:51:01.260Z,6750.0
2019-04-01T17:52:04.185Z,6392.4
2019-04-01T17:53:01.103Z,6039.9
2019-04-01T17:54:06.119Z,5694.1
2019-04-01T17:55:01.109Z,5355.8
2019-04-01T17:56:01.322Z,5025.4
2019-04-01T17:57:01.111Z,4703.5
2019-04-01T17:58:01.108Z,4390.6
2019-04-01T17:59:01.560Z,4087.3
2019-04-01T18:00:01.115Z,3793.7
2019-04-01T18:01:02.050Z,3510.5
2019-04-01T18:02:01.649Z,3238.3
2019-04-01T18:03:01.112Z,2977.5
2019-04-01T18:04:02.124Z,2728.5
2019-04-01T18:05:01.114Z,2491.8
2019-04-01T18:06:01.331Z,2268.3
2019-04-01T18:07:07.302Z,2058.4
2019-04-01T18:08:01.112Z,1862.2
2019-04-01T18:09:01.111Z,1679.5
2019-04-01T18:10:01.110Z,1509.9
2019-04-01T18:11:01.264Z,1353.0
2019-04-01T18:12:01.153Z,1208.2
2019-04-01T18:13:01.114Z,1075.5
2019-04-01T18:14:02.803Z,954.6
2019-04-01T18:15:01.118Z,844.9
2019-04-01T18:16:01.272Z,745.6
2019-04-01T18:17:06.134Z,656.1
2019-04-01T18:18:01.121Z,575.9
2019-04-01T18:19:01.112Z,504.2
2019-04-01T18:20:01.115Z,440.4
2019-04-01T18:21:01.271Z,383.7
2019-04-01T18:22:06.128Z,333.5
2019-04-01T18:23:01.121Z,289.2
2019-04-01T18:24:01.108Z,250.3
2019-04-01T18:26:01.323Z,215.5
2019-04-01T18:27:01.135Z,185.1
2019-04-01T18:28:01.099Z,158.5
2019-04-01T18:29:01.102Z,135.3
2019-04-01T18:30:01.104Z,115.2
2019-04-01T18:31:01.254Z,97.9
2019-04-01T18:32:02.177Z,82.9
2019-04-01T18:33:01.101Z,70.2
2019-04-01T18:34:02.120Z,59.2
2019-04-01T18:35:03.857Z,49.8
2019-04-01T18:36:01.284Z,41.7
2019-04-01T18:37:01.140Z,34.9
2019-04-01T18:38:01.112Z,29.1
2019-04-01T18:39:03.831Z,24.2
2019-04-01T18:40:01.103Z,19.9
2019-04-01T18:41:01.253Z,16.9
2019-04-01T18:42:06.127Z,14.3
2019-04-01T18:43:01.115Z,12.1
2019-04-01T18:44:01.107Z,10.2
2019-04-01T18:45:01.105Z,8.6
2019-04-01T18:46:01.255Z,7.3
2019-04-01T18:47:03.755Z,6.1
2019-04-01T18:48:01.100Z,5.1
2019-04-01T18:49:01.105Z,4.3
2019-04-01T18:50:01.133Z,3.7
2019-04-01T18:51:01.271Z,3.1
2019-04-01T18:52:02.975Z,2.7
2019-04-01T18:53:01.133Z,2.3
2019-04-01T18:54:01.133Z,1.9
2019-04-01T18:55:02.126Z,1.6
2019-04-01T18:56:01.257Z,1.3
2019-04-01T18:57:03.592Z,1.1
2019-04-01T18:58:01.101Z,0.9
2019-04-01T18:59:01.136Z,0.8
2019-04-01T19:00:01.107Z,0.7
2019-04-01T19:01:04.266Z,0.5
2019-04-01T19:03:01.204Z,0.4
2019-04-01T19:04:01.099Z,0.3
2019-04-01T19:06:01.261Z,0.2
2019-04-01T19:07:01.111Z,0.1
